Startpagina
METAR-TAF:

METAR-TAF

Vliegvelden :

Teheran Mehrabad International Airport

Teheran, Iran

breedte: 35-41N, lengte: 051-21E, hoogte: 1204 m

Actueel weer

Dit bericht is 16 minuten geleden gemaakt, om 06:00 UTC
Wind 8 kt uit het zuidzuidoosten
Temperatuur 31°C
Vochtigheid 18%
Druk 1017 hPa
Zicht 10 km of meer
geen wolken onder 1500 m en geen cumulonimbus

METAR: OIII 160600Z 15008KT CAVOK 31/04 Q1017 A3003

Tijdstip: 10:46 (06:16 UTC)

Verwachting

Dit bericht is 1 uur en het 1 minuten geleden gemaakt, om 05:15 UTC
Verwachting geldig van 16 om 06 UTC tot 17 om 12 UTC
Wind 10 kt uit het zuidzuidoosten
Zicht 10 km of meer
geen wolken onder 1500 m en geen cumulonimbus
Wijzigt naar
van 16 om 18 UTC tot 16 om 20 UTC
Wind 10 kt uit het noordwesten
Wijzigt naar
van 17 om 04 UTC tot 17 om 06 UTC
Wind 10 kt uit het zuidzuidoosten

TAF: OIII 160515Z 1606/1712 15005MPS CAVOK BECMG 1618/1620 32005MPS BECMG 1704/1706 15005MPS

Waarnemingen en weersverwachtingen van meer dan 4000 vliegvelden (METAR en TAF).

De beschikbare stations zijn de gele en rode punten op de kaart.

Ga met uw muis naar het station om de naam te zien.

Klik dan om waarnemingen en weersverwachtingen te zien.

kaart wijzigen: klik op de groene knoppen met een zwart kruis om in te zoomen, op de groene knop met een streepje om uit te zoomen of op de groene pijlen voor aangrenzende kaarten.


METAR-TAF: